createdAt,value
2022-08-16T00:01:04.106Z,2.80
2022-08-16T00:03:37.704Z,2.50
2022-08-16T00:06:04.960Z,2.53
2022-08-16T00:08:36.611Z,2.40
2022-08-16T00:11:08.724Z,2.93
2022-08-16T00:13:53.418Z,3.10
2022-08-16T00:17:00.657Z,2.70
2022-08-16T00:19:24.532Z,2.50
2022-08-16T00:22:01.443Z,2.60
2022-08-16T00:24:32.615Z,2.67
2022-08-16T00:27:02.592Z,2.57
2022-08-16T00:29:30.279Z,2.80
2022-08-16T00:32:05.390Z,2.90
2022-08-16T00:34:43.744Z,2.70
2022-08-16T00:37:17.152Z,2.90
2022-08-16T00:39:47.340Z,2.87
2022-08-16T00:42:30.444Z,2.70
2022-08-16T00:45:25.040Z,2.70
2022-08-16T00:47:54.661Z,2.83
2022-08-16T00:50:35.809Z,2.90
2022-08-16T00:53:06.925Z,2.50
2022-08-16T00:55:39.030Z,2.90
2022-08-16T00:58:12.982Z,2.70
2022-08-16T01:00:53.974Z,2.90
2022-08-16T01:03:30.419Z,2.80
2022-08-16T01:06:39.752Z,3.13
2022-08-16T01:08:55.702Z,2.87
2022-08-16T01:11:29.422Z,2.60
2022-08-16T01:14:07.255Z,2.80
2022-08-16T01:16:35.304Z,2.90
2022-08-16T01:19:30.782Z,3.17
2022-08-16T01:22:47.467Z,2.90
2022-08-16T01:25:10.219Z,2.67
2022-08-16T01:27:46.779Z,2.87
2022-08-16T01:30:21.913Z,2.80
2022-08-16T01:33:02.316Z,2.97
2022-08-16T01:35:46.002Z,2.70
2022-08-16T01:38:20.000Z,3.13
2022-08-16T01:40:49.405Z,3.07
2022-08-16T01:43:16.533Z,2.97
2022-08-16T01:45:43.927Z,3.17
2022-08-16T01:48:19.926Z,3.00
2022-08-16T01:51:08.857Z,2.90
2022-08-16T01:53:40.530Z,2.70
2022-08-16T01:56:08.381Z,2.77
2022-08-16T01:58:50.872Z,2.90
2022-08-16T02:01:18.375Z,2.90
2022-08-16T02:03:45.201Z,3.73
2022-08-16T02:06:26.041Z,2.90
2022-08-16T02:09:05.164Z,2.90
2022-08-16T02:11:48.871Z,2.87
2022-08-16T02:14:22.396Z,2.80
2022-08-16T02:16:54.943Z,3.00
2022-08-16T02:19:58.882Z,3.27
2022-08-16T02:22:34.909Z,3.10
2022-08-16T02:25:10.445Z,2.93
2022-08-16T02:27:43.625Z,2.90
2022-08-16T02:30:42.528Z,3.33
2022-08-16T02:33:05.162Z,2.97
2022-08-16T02:35:34.036Z,3.20
2022-08-16T02:38:08.883Z,3.40
2022-08-16T02:40:37.938Z,3.13
2022-08-16T02:43:04.944Z,3.23
2022-08-16T02:45:32.337Z,3.43
2022-08-16T02:48:01.827Z,3.63
2022-08-16T02:51:03.016Z,3.23
2022-08-16T02:53:35.164Z,3.80
2022-08-16T02:56:02.527Z,3.60
2022-08-16T02:58:31.469Z,3.37
2022-08-16T03:00:59.465Z,3.40
2022-08-16T03:04:40.950Z,3.67
2022-08-16T03:06:42.393Z,2.93
2022-08-16T03:09:11.833Z,3.50
2022-08-16T03:11:40.904Z,3.00
2022-08-16T03:14:08.393Z,3.57
2022-08-16T03:16:38.336Z,3.70
2022-08-16T03:19:09.317Z,3.20
2022-08-16T03:21:38.224Z,3.33
2022-08-16T03:24:28.742Z,3.43
2022-08-16T03:27:01.764Z,3.53
2022-08-16T03:29:33.656Z,3.37
2022-08-16T03:32:02.263Z,3.67
2022-08-16T03:34:33.149Z,3.80
2022-08-16T03:37:00.661Z,3.73
2022-08-16T03:39:28.730Z,3.50
2022-08-16T03:41:59.732Z,3.57
2022-08-16T03:44:44.571Z,3.70
2022-08-16T03:47:19.273Z,3.87
2022-08-16T03:49:51.704Z,3.37
2022-08-16T03:52:23.458Z,3.33
2022-08-16T03:54:59.229Z,3.50
2022-08-16T03:57:32.162Z,3.57
2022-08-16T04:00:35.464Z,3.40
2022-08-16T04:03:07.102Z,3.37
2022-08-16T04:05:43.958Z,3.73
2022-08-16T04:08:24.147Z,3.50
2022-08-16T04:10:54.191Z,3.30
2022-08-16T04:14:01.747Z,3.57
2022-08-16T04:16:27.610Z,3.33
2022-08-16T04:19:01.273Z,3.20
2022-08-16T04:21:35.595Z,2.97
2022-08-16T04:24:03.684Z,3.20
2022-08-16T04:26:35.216Z,3.40
2022-08-16T04:29:16.761Z,3.23
2022-08-16T04:31:56.810Z,3.33
2022-08-16T04:34:35.750Z,3.30
2022-08-16T04:37:05.190Z,3.20
2022-08-16T04:39:46.167Z,3.50
2022-08-16T04:42:17.475Z,3.57
2022-08-16T04:44:54.590Z,3.37
2022-08-16T04:47:33.221Z,3.70
2022-08-16T04:50:10.350Z,3.27
2022-08-16T04:52:38.947Z,3.57
2022-08-16T04:55:22.813Z,3.30
2022-08-16T04:58:45.044Z,3.37
2022-08-16T05:00:52.361Z,3.43
2022-08-16T05:03:19.596Z,3.53
2022-08-16T05:05:59.065Z,3.50
2022-08-16T05:08:32.446Z,3.10
2022-08-16T05:11:05.613Z,3.80
2022-08-16T05:13:40.784Z,3.40
2022-08-16T05:16:21.672Z,3.17
2022-08-16T05:18:53.098Z,3.20
2022-08-16T05:21:22.204Z,3.73
2022-08-16T05:23:58.653Z,3.90
2022-08-16T05:26:30.407Z,3.20
2022-08-16T05:28:58.821Z,3.57
2022-08-16T05:31:30.412Z,3.30
2022-08-16T05:34:00.492Z,3.63
2022-08-16T05:36:36.528Z,3.13
2022-08-16T05:39:08.859Z,3.63
2022-08-16T05:41:44.994Z,3.47
2022-08-16T05:44:23.235Z,3.60
2022-08-16T05:47:00.073Z,3.40
2022-08-16T05:49:38.789Z,3.73
2022-08-16T05:52:11.302Z,3.40
2022-08-16T05:54:47.643Z,3.43
2022-08-16T05:57:18.199Z,3.80
2022-08-16T05:59:50.283Z,3.30
2022-08-16T06:02:18.579Z,3.43
2022-08-16T06:04:46.081Z,3.23
2022-08-16T06:07:25.223Z,4.00
2022-08-16T06:09:58.141Z,3.40
2022-08-16T06:12:29.350Z,3.40
2022-08-16T06:15:16.758Z,3.40
2022-08-16T06:17:45.164Z,3.53
2022-08-16T06:20:23.526Z,3.53
2022-08-16T06:22:58.465Z,3.47
2022-08-16T06:25:36.597Z,3.23
2022-08-16T06:28:10.188Z,3.10
2022-08-16T06:30:43.350Z,3.40
2022-08-16T06:33:12.443Z,3.60
2022-08-16T06:35:41.521Z,3.63
2022-08-16T06:38:32.496Z,3.83
2022-08-16T06:40:56.769Z,3.73
2022-08-16T06:43:27.628Z,3.50
2022-08-16T06:45:55.276Z,3.33
2022-08-16T06:48:33.141Z,3.33
2022-08-16T06:51:06.013Z,3.30
2022-08-16T06:53:36.481Z,3.53
2022-08-16T06:56:14.312Z,3.60
2022-08-16T06:58:51.995Z,3.40
2022-08-16T07:01:44.516Z,3.67
2022-08-16T07:04:10.290Z,3.40
2022-08-16T07:06:40.423Z,3.63
2022-08-16T07:09:12.564Z,3.47
2022-08-16T07:11:47.657Z,4.00
2022-08-16T07:14:25.299Z,3.57
2022-08-16T07:16:58.263Z,3.80
2022-08-16T07:19:33.709Z,3.40
2022-08-16T07:22:37.038Z,3.60
2022-08-16T07:25:08.182Z,3.43
2022-08-16T07:27:37.146Z,3.40
2022-08-16T07:30:39.784Z,3.43
2022-08-16T07:32:57.387Z,3.73
2022-08-16T07:35:25.633Z,3.33
2022-08-16T07:37:53.262Z,3.90
2022-08-16T07:40:36.930Z,3.87
2022-08-16T07:43:08.058Z,3.93
2022-08-16T07:45:35.850Z,3.60
2022-08-16T07:48:11.552Z,3.73
2022-08-16T07:50:56.494Z,3.60
2022-08-16T07:53:30.972Z,3.70
2022-08-16T07:56:00.507Z,3.50
2022-08-16T07:58:33.795Z,3.83
2022-08-16T08:01:01.818Z,3.67
2022-08-16T08:03:35.770Z,3.87
2022-08-16T08:06:05.930Z,3.77
2022-08-16T08:08:50.702Z,3.23
2022-08-16T08:11:19.962Z,3.30
2022-08-16T08:13:50.719Z,3.83
2022-08-16T08:16:19.935Z,3.63
2022-08-16T08:18:50.442Z,3.60
2022-08-16T08:21:27.466Z,4.20
2022-08-16T08:24:15.225Z,3.93
2022-08-16T08:26:42.923Z,3.47
2022-08-16T08:29:10.073Z,3.20
2022-08-16T08:31:42.081Z,3.97
2022-08-16T08:34:09.359Z,3.50
2022-08-16T08:36:40.169Z,3.43
2022-08-16T08:39:12.634Z,3.63
2022-08-16T08:41:42.635Z,3.70
2022-08-16T08:44:29.174Z,3.90
2022-08-16T08:47:11.017Z,3.70
2022-08-16T08:49:46.901Z,3.80
2022-08-16T08:52:35.249Z,3.67
2022-08-16T08:55:10.289Z,3.63
2022-08-16T08:57:44.776Z,3.93
2022-08-16T09:00:14.634Z,3.67
2022-08-16T09:02:47.860Z,3.77
2022-08-16T09:05:22.326Z,3.90
2022-08-16T09:08:01.671Z,3.73
2022-08-16T09:10:33.763Z,4.10
2022-08-16T09:13:01.602Z,3.63
2022-08-16T09:15:32.998Z,3.63
2022-08-16T09:18:35.403Z,3.97
2022-08-16T09:21:00.073Z,3.63
2022-08-16T09:23:31.356Z,4.03
2022-08-16T09:26:44.272Z,3.77
2022-08-16T09:29:15.862Z,4.10
2022-08-16T09:31:42.944Z,3.70
2022-08-16T09:34:10.844Z,3.60
2022-08-16T09:36:46.283Z,4.00
2022-08-16T09:39:16.301Z,4.33
2022-08-16T09:41:53.580Z,4.00
2022-08-16T09:45:09.759Z,3.80
2022-08-16T09:47:11.379Z,3.87
2022-08-16T09:49:40.955Z,3.90
2022-08-16T09:52:09.850Z,4.07
2022-08-16T09:54:38.718Z,4.10
2022-08-16T09:57:12.290Z,3.87
2022-08-16T09:59:42.044Z,3.70
2022-08-16T10:02:27.101Z,3.58
2022-08-16T10:04:58.029Z,3.90
2022-08-16T10:07:44.704Z,4.07
2022-08-16T10:10:19.051Z,3.63
2022-08-16T10:13:12.599Z,3.60
2022-08-16T10:15:46.994Z,4.10
2022-08-16T10:19:02.014Z,3.67
2022-08-16T10:21:09.856Z,3.90
2022-08-16T10:23:36.681Z,3.67
2022-08-16T10:27:17.379Z,3.60
2022-08-16T10:28:52.747Z,4.00
2022-08-16T10:31:45.387Z,3.72
2022-08-16T10:34:24.017Z,3.55
2022-08-16T10:36:55.316Z,4.20
2022-08-16T10:39:22.384Z,3.85
2022-08-16T10:41:51.259Z,3.60
2022-08-16T10:44:18.115Z,3.85
2022-08-16T10:46:45.373Z,3.90
2022-08-16T10:49:16.894Z,3.72
2022-08-16T10:52:01.244Z,3.45
2022-08-16T10:54:32.042Z,4.10
2022-08-16T10:57:04.294Z,3.55
2022-08-16T10:59:45.758Z,3.75
2022-08-16T11:02:57.652Z,3.40
2022-08-16T11:05:15.066Z,3.53
2022-08-16T11:07:53.403Z,3.47
2022-08-16T11:19:04.231Z,3.13
2022-08-16T11:21:33.942Z,3.55
2022-08-16T11:24:02.207Z,3.88
2022-08-16T11:26:29.754Z,3.67
2022-08-16T11:29:14.515Z,3.33
2022-08-16T11:31:43.434Z,3.58
2022-08-16T11:34:20.862Z,3.47
2022-08-16T11:36:59.368Z,3.30
2022-08-16T11:39:32.013Z,3.30
2022-08-16T11:42:01.766Z,3.65
2022-08-16T11:44:52.313Z,3.78
2022-08-16T11:47:16.180Z,3.47
2022-08-16T11:49:43.080Z,3.10
2022-08-16T11:52:09.916Z,3.58
2022-08-16T11:54:37.563Z,3.42
2022-08-16T11:57:09.006Z,3.28
2022-08-16T11:59:40.023Z,3.53
2022-08-16T12:02:31.332Z,3.47
2022-08-16T12:04:57.230Z,3.53
2022-08-16T12:07:24.257Z,3.83
2022-08-16T12:09:53.776Z,3.42
2022-08-16T12:12:23.585Z,3.33
2022-08-16T12:14:59.371Z,3.55
2022-08-16T12:17:32.352Z,3.60
2022-08-16T12:20:18.625Z,3.53
2022-08-16T12:22:47.121Z,3.15
2022-08-16T12:25:17.881Z,3.17
2022-08-16T12:27:47.632Z,3.15
2022-08-16T12:30:27.015Z,3.30
2022-08-16T12:33:03.064Z,2.90
2022-08-16T12:35:32.563Z,3.00
2022-08-16T12:38:38.094Z,3.33
2022-08-16T12:40:55.543Z,3.38
2022-08-16T12:43:23.732Z,3.17
2022-08-16T12:45:55.181Z,3.03
2022-08-16T12:48:49.755Z,3.50
2022-08-16T12:51:24.439Z,3.10
2022-08-16T12:53:55.727Z,3.20
2022-08-16T12:56:27.840Z,3.00
2022-08-16T12:58:57.825Z,3.20
2022-08-16T13:01:31.288Z,3.22
2022-08-16T13:04:11.626Z,2.90
2022-08-16T13:06:48.409Z,3.05
2022-08-16T13:09:20.616Z,2.97
2022-08-16T13:12:21.092Z,3.17
2022-08-16T13:14:50.015Z,3.15
2022-08-16T13:17:24.041Z,3.00
2022-08-16T13:20:11.265Z,3.08
2022-08-16T13:22:44.541Z,2.80
2022-08-16T13:25:21.464Z,2.65
2022-08-16T13:28:02.987Z,3.10
2022-08-16T13:30:41.775Z,2.88
2022-08-16T13:33:16.477Z,3.47
2022-08-16T13:35:56.224Z,2.72
2022-08-16T13:38:25.545Z,2.88
2022-08-16T13:40:55.888Z,2.80
2022-08-16T13:43:27.149Z,2.35
2022-08-16T13:45:56.892Z,2.60
2022-08-16T13:48:37.084Z,3.00
2022-08-16T13:51:18.812Z,2.92
2022-08-16T13:53:59.616Z,2.70
2022-08-16T13:56:37.987Z,2.55
2022-08-16T13:59:13.963Z,2.83
2022-08-16T14:01:55.511Z,2.70
2022-08-16T14:04:36.498Z,2.45
2022-08-16T14:07:13.137Z,2.67
2022-08-16T14:09:47.390Z,2.97
2022-08-16T14:12:29.256Z,3.20
2022-08-16T14:14:58.134Z,2.88
2022-08-16T14:17:27.896Z,2.92
2022-08-16T14:19:59.968Z,2.67
2022-08-16T14:22:39.903Z,2.80
2022-08-16T14:25:16.638Z,2.72
2022-08-16T14:27:46.252Z,2.80
2022-08-16T14:30:18.984Z,2.50
2022-08-16T14:32:50.889Z,2.55
2022-08-16T14:35:36.389Z,2.70
2022-08-16T14:38:18.610Z,2.60
2022-08-16T14:40:52.647Z,2.50
2022-08-16T14:43:22.009Z,2.88
2022-08-16T14:45:50.616Z,2.78
2022-08-16T14:48:26.073Z,2.65
2022-08-16T14:50:54.745Z,2.60
2022-08-16T14:53:24.255Z,3.53
2022-08-16T14:55:51.480Z,2.65
2022-08-16T14:58:20.281Z,2.53
2022-08-16T15:01:02.258Z,2.80
2022-08-16T15:03:30.281Z,2.72
2022-08-16T15:06:01.698Z,2.90
2022-08-16T15:08:36.313Z,2.90
2022-08-16T15:11:04.606Z,2.70
2022-08-16T15:13:31.477Z,2.83
2022-08-16T15:16:02.518Z,2.70
2022-08-16T15:18:31.981Z,2.90
2022-08-16T15:21:04.649Z,3.20
2022-08-16T15:23:33.892Z,2.78
2022-08-16T15:26:03.876Z,2.80
2022-08-16T15:28:32.974Z,2.50
2022-08-16T15:31:03.681Z,3.00
2022-08-16T15:33:43.312Z,3.28
2022-08-16T15:36:18.048Z,3.00
2022-08-16T15:38:57.586Z,3.08
2022-08-16T15:41:58.290Z,2.65
2022-08-16T15:44:38.867Z,2.40
2022-08-16T15:47:18.229Z,2.90
2022-08-16T15:49:46.895Z,2.80
2022-08-16T15:52:30.353Z,2.80
2022-08-16T15:55:12.831Z,3.00
2022-08-16T15:57:51.507Z,3.10
2022-08-16T16:00:20.592Z,2.63
2022-08-16T16:02:49.530Z,3.30
2022-08-16T16:05:18.828Z,2.75
2022-08-16T16:07:56.381Z,2.80
2022-08-16T16:10:29.252Z,2.78
2022-08-16T16:13:00.758Z,3.13
2022-08-16T16:15:35.451Z,2.88
2022-08-16T16:18:05.178Z,2.88
2022-08-16T16:20:46.892Z,2.90
2022-08-16T16:23:19.421Z,2.78
2022-08-16T16:25:53.320Z,2.72
2022-08-16T16:29:06.255Z,3.17
2022-08-16T16:31:16.161Z,2.63
2022-08-16T16:33:50.448Z,2.90
2022-08-16T16:36:21.430Z,2.85
2022-08-16T16:38:50.447Z,2.75
2022-08-16T16:41:24.470Z,3.20
2022-08-16T16:43:55.706Z,2.60
2022-08-16T16:46:39.025Z,2.92
2022-08-16T16:49:11.892Z,3.35
2022-08-16T16:51:44.678Z,3.08
2022-08-16T16:54:28.109Z,2.72
2022-08-16T16:56:57.978Z,3.30
2022-08-16T16:59:28.465Z,3.00
2022-08-16T17:02:28.316Z,2.92
2022-08-16T17:04:44.062Z,2.70
2022-08-16T17:07:12.161Z,2.75
2022-08-16T17:09:41.198Z,2.78
2022-08-16T17:12:17.632Z,2.88
2022-08-16T17:14:56.058Z,3.08
2022-08-16T17:17:24.092Z,2.92
2022-08-16T17:19:51.332Z,3.22
2022-08-16T17:22:24.131Z,2.95
2022-08-16T17:25:00.532Z,2.85
2022-08-16T17:27:33.806Z,3.05
2022-08-16T17:30:17.040Z,2.88
2022-08-16T17:33:02.825Z,3.03
2022-08-16T17:35:45.592Z,3.13
2022-08-16T17:38:39.310Z,2.72
2022-08-16T17:41:12.571Z,2.88
2022-08-16T17:43:44.245Z,2.97
2022-08-16T17:46:50.553Z,2.92
2022-08-16T17:49:01.149Z,2.58
2022-08-16T17:51:28.414Z,2.75
2022-08-16T17:53:56.567Z,2.50
2022-08-16T17:56:23.464Z,2.63
2022-08-16T17:58:50.293Z,2.78
2022-08-16T18:01:25.457Z,3.05
2022-08-16T18:04:08.620Z,3.60
2022-08-16T18:06:38.035Z,4.25
2022-08-16T18:09:05.246Z,3.40
2022-08-16T18:11:40.806Z,3.05
2022-08-16T18:14:09.980Z,3.25
2022-08-16T18:16:36.931Z,3.13
2022-08-16T18:19:03.871Z,2.95
2022-08-16T18:21:48.952Z,3.50
2022-08-16T18:24:16.192Z,2.80
2022-08-16T18:26:43.037Z,3.35
2022-08-16T18:29:09.890Z,3.13
2022-08-16T18:31:37.711Z,4.60
2022-08-16T18:34:05.842Z,4.93
2022-08-16T18:36:33.314Z,4.15
2022-08-16T18:39:00.734Z,3.67
2022-08-16T18:41:30.365Z,3.25
2022-08-16T18:44:25.600Z,3.10
2022-08-16T18:46:46.327Z,2.95
2022-08-16T18:49:19.275Z,3.22
2022-08-16T18:51:46.671Z,3.58
2022-08-16T18:54:18.135Z,3.10
2022-08-16T18:56:55.743Z,3.10
2022-08-16T18:59:30.408Z,3.22
2022-08-16T19:02:03.948Z,3.13
2022-08-16T19:04:55.326Z,3.00
2022-08-16T19:07:29.682Z,3.20
2022-08-16T19:10:02.058Z,4.25
2022-08-16T19:12:38.123Z,4.38
2022-08-16T19:15:15.951Z,3.30
2022-08-16T19:17:44.171Z,3.05
2022-08-16T19:20:14.296Z,3.10
2022-08-16T19:25:47.566Z,2.75
2022-08-16T19:28:50.732Z,2.95
2022-08-16T19:31:26.247Z,2.80
2022-08-16T19:33:56.528Z,3.10
2022-08-16T19:36:30.999Z,2.80
2022-08-16T19:39:04.255Z,2.67
2022-08-16T19:41:32.391Z,2.80
2022-08-16T19:43:59.257Z,2.60
2022-08-16T19:46:26.372Z,3.07
2022-08-16T19:48:53.397Z,3.07
2022-08-16T19:51:21.877Z,2.90
2022-08-16T19:53:49.413Z,3.27
2022-08-16T19:56:16.700Z,2.80
2022-08-16T19:59:08.685Z,2.80
2022-08-16T20:01:31.649Z,2.80
2022-08-16T20:03:58.494Z,2.87
2022-08-16T20:06:38.020Z,2.90
2022-08-16T20:09:06.531Z,2.90
2022-08-16T20:11:35.520Z,3.00
2022-08-16T20:14:02.765Z,2.67
2022-08-16T20:16:29.928Z,2.83
2022-08-16T20:18:56.783Z,2.90
2022-08-16T20:21:24.207Z,2.80
2022-08-16T20:23:51.200Z,3.10
2022-08-16T20:26:18.774Z,2.67
2022-08-16T20:28:54.031Z,3.03
2022-08-16T20:31:23.663Z,3.10
2022-08-16T20:33:52.157Z,2.80
2022-08-16T20:36:19.062Z,3.13
2022-08-16T20:38:47.452Z,2.73
2022-08-16T20:41:16.719Z,3.07
2022-08-16T20:43:45.512Z,2.90
2022-08-16T20:46:13.415Z,3.07
2022-08-16T20:48:40.249Z,2.90
2022-08-16T20:51:10.416Z,3.17
2022-08-16T20:53:42.286Z,2.80
2022-08-16T20:56:11.313Z,3.07
2022-08-16T20:58:38.733Z,2.90
2022-08-16T21:01:08.475Z,2.97
2022-08-16T21:03:36.565Z,2.97
2022-08-16T21:06:05.324Z,3.23
2022-08-16T21:08:53.059Z,3.10
2022-08-16T21:11:21.545Z,3.00
2022-08-16T21:13:48.434Z,3.17
2022-08-16T21:16:16.334Z,3.00
2022-08-16T21:18:43.247Z,2.97
2022-08-16T21:21:11.987Z,3.30
2022-08-16T21:23:39.001Z,3.33
2022-08-16T21:26:10.888Z,3.40
2022-08-16T21:28:43.154Z,3.53
2022-08-16T21:31:13.071Z,3.37
2022-08-16T21:33:40.756Z,3.30
2022-08-16T21:36:08.083Z,3.30
2022-08-16T21:38:35.190Z,3.13
2022-08-16T21:41:04.814Z,3.37
2022-08-16T21:43:33.350Z,2.97
2022-08-16T21:46:06.201Z,3.33
2022-08-16T21:48:36.082Z,3.37
2022-08-16T21:51:07.584Z,3.33
2022-08-16T21:53:36.233Z,3.30
2022-08-16T21:56:05.754Z,3.00
2022-08-16T21:58:33.032Z,3.10
2022-08-16T22:01:01.298Z,3.20
2022-08-16T22:03:32.792Z,3.10
2022-08-16T22:06:13.879Z,3.30
2022-08-16T22:08:50.360Z,3.30
2022-08-16T22:11:25.574Z,3.20
2022-08-16T22:13:58.578Z,3.53
2022-08-16T22:16:33.690Z,3.67
2022-08-16T22:19:01.773Z,3.17
2022-08-16T22:21:30.236Z,3.57
2022-08-16T22:23:58.906Z,3.33
2022-08-16T22:26:38.466Z,3.70
2022-08-16T22:29:12.024Z,3.83
2022-08-16T22:31:41.849Z,3.60
2022-08-16T22:34:08.931Z,3.60
2022-08-16T22:36:37.272Z,3.60
2022-08-16T22:39:08.677Z,3.40
2022-08-16T22:41:38.353Z,3.63
2022-08-16T22:44:06.798Z,3.47
2022-08-16T22:46:36.440Z,4.00
2022-08-16T22:49:06.283Z,3.87
2022-08-16T22:51:34.552Z,3.90
2022-08-16T22:54:44.178Z,3.63
2022-08-16T22:56:48.391Z,3.57
2022-08-16T22:59:15.168Z,3.70
2022-08-16T23:01:42.393Z,3.90
2022-08-16T23:04:09.368Z,3.90
2022-08-16T23:06:36.212Z,4.07
2022-08-16T23:09:03.470Z,3.83
2022-08-16T23:11:30.253Z,3.90
2022-08-16T23:13:57.074Z,4.17
2022-08-16T23:16:33.753Z,4.37
2022-08-16T23:19:12.203Z,4.27
2022-08-16T23:21:43.840Z,4.50
2022-08-16T23:24:12.219Z,4.13
2022-08-16T23:26:46.371Z,4.40
2022-08-16T23:29:24.605Z,4.37
2022-08-16T23:31:58.013Z,4.10
2022-08-16T23:34:27.827Z,4.40
2022-08-16T23:36:55.219Z,4.23
2022-08-16T23:39:22.452Z,4.17
2022-08-16T23:41:49.377Z,4.20
2022-08-16T23:44:56.089Z,3.83
2022-08-16T23:47:05.824Z,3.93
2022-08-16T23:49:57.984Z,3.57
2022-08-16T23:52:45.675Z,4.27
2022-08-16T23:55:08.235Z,4.47
2022-08-16T23:57:35.039Z,3.80
